createdAt,value
2018-04-22T00:00:13.598Z,91.60
2018-04-22T00:01:13.620Z,91.60
2018-04-22T00:02:13.640Z,91.03
2018-04-22T00:03:13.662Z,91.13
2018-04-22T00:04:13.682Z,91.36
2018-04-22T00:05:13.692Z,91.55
2018-04-22T00:06:13.713Z,92.03
2018-04-22T00:07:13.736Z,91.84
2018-04-22T00:08:13.757Z,91.65
2018-04-22T00:09:13.778Z,92.03
2018-04-22T00:10:13.799Z,91.94
2018-04-22T00:11:13.808Z,91.94
2018-04-22T00:12:13.829Z,92.03
2018-04-22T00:13:13.850Z,92.60
2018-04-22T00:14:13.872Z,93.55
2018-04-22T00:15:13.893Z,93.27
2018-04-22T00:16:13.903Z,92.69
2018-04-22T00:17:13.935Z,92.98
2018-04-22T00:18:13.947Z,93.08
2018-04-22T00:19:13.966Z,92.89
2018-04-22T00:20:13.991Z,92.69
2018-04-22T00:21:14.014Z,92.50
2018-04-22T00:22:14.030Z,92.50
2018-04-22T00:23:14.039Z,92.79
2018-04-22T00:24:14.061Z,92.41
2018-04-22T00:25:14.084Z,92.69
2018-04-22T00:26:14.104Z,92.69
2018-04-22T00:27:14.125Z,92.79
2018-04-22T00:28:14.134Z,93.46
2018-04-22T00:29:14.157Z,93.37
2018-04-22T00:30:14.177Z,93.46
2018-04-22T00:31:14.199Z,93.74
2018-04-22T00:32:14.224Z,93.17
2018-04-22T00:33:14.229Z,93.74
2018-04-22T00:34:14.252Z,93.93
2018-04-22T00:35:14.270Z,94.03
2018-04-22T00:36:14.293Z,93.84
2018-04-22T00:37:14.313Z,93.46
2018-04-22T00:38:14.335Z,93.84
2018-04-22T00:39:14.346Z,93.74
2018-04-22T00:40:14.367Z,94.03
2018-04-22T00:41:14.386Z,94.03
2018-04-22T00:42:14.408Z,93.55
2018-04-22T00:43:14.430Z,94.13
2018-04-22T00:44:14.451Z,93.93
2018-04-22T00:45:14.460Z,93.93
2018-04-22T00:46:14.481Z,93.55
2018-04-22T00:47:14.503Z,93.65
2018-04-22T00:48:14.524Z,93.84
2018-04-22T00:49:14.538Z,94.79
2018-04-22T00:50:14.556Z,94.32
2018-04-22T00:51:14.577Z,94.03
2018-04-22T00:52:14.599Z,94.03
2018-04-22T00:53:14.621Z,93.74
2018-04-22T00:54:14.642Z,93.93
2018-04-22T00:55:14.652Z,94.03
2018-04-22T00:56:14.671Z,93.84
2018-04-22T00:57:14.704Z,93.93
2018-04-22T00:58:14.714Z,93.74
2018-04-22T00:59:14.734Z,93.93
2018-04-22T01:00:14.746Z,94.03
2018-04-22T01:01:14.766Z,94.17
2018-04-22T01:02:14.788Z,94.46
2018-04-22T01:03:14.809Z,94.46
2018-04-22T01:04:14.819Z,94.65
2018-04-22T01:05:14.838Z,95.32
2018-04-22T01:06:14.861Z,95.60
2018-04-22T01:07:14.881Z,95.22
2018-04-22T01:08:14.902Z,95.32
2018-04-22T01:09:14.925Z,95.12
2018-04-22T01:10:14.934Z,95.32
2018-04-22T01:11:14.958Z,95.03
2018-04-22T01:12:14.975Z,95.12
2018-04-22T01:13:15.000Z,95.89
2018-04-22T01:14:15.011Z,95.12
2018-04-22T01:15:15.061Z,95.70
2018-04-22T01:16:15.049Z,95.41
2018-04-22T01:17:15.069Z,95.22
2018-04-22T01:18:15.092Z,95.12
2018-04-22T01:19:15.101Z,95.12
2018-04-22T01:20:15.123Z,95.60
2018-04-22T01:21:15.145Z,95.60
2018-04-22T01:22:15.166Z,95.03
2018-04-22T01:23:15.187Z,95.79
2018-04-22T01:24:15.196Z,95.51
2018-04-22T01:25:15.218Z,95.60
2018-04-22T01:26:15.240Z,95.51
2018-04-22T01:27:15.261Z,95.51
2018-04-22T01:28:15.283Z,95.56
2018-04-22T01:29:15.293Z,95.60
2018-04-22T01:30:15.315Z,95.94
2018-04-22T01:31:15.336Z,95.84
2018-04-22T01:32:15.358Z,95.84
2018-04-22T01:33:15.366Z,96.41
2018-04-22T01:34:15.388Z,96.41
2018-04-22T01:35:15.410Z,96.03
2018-04-22T01:36:15.431Z,96.22
2018-04-22T01:37:15.445Z,96.31
2018-04-22T01:38:15.462Z,95.84
2018-04-22T01:39:15.483Z,96.03
2018-04-22T01:40:15.507Z,96.22
2018-04-22T01:41:15.526Z,96.41
2018-04-22T01:42:15.535Z,96.89
2018-04-22T01:43:15.557Z,96.79
2018-04-22T01:44:15.578Z,96.79
2018-04-22T01:45:15.612Z,97.08
2018-04-22T01:46:15.609Z,96.89
2018-04-22T01:47:15.631Z,96.98
2018-04-22T01:48:15.651Z,97.46
2018-04-22T01:49:15.673Z,96.98
2018-04-22T01:50:15.682Z,96.89
2018-04-22T01:51:15.702Z,97.27
2018-04-22T01:52:15.724Z,97.65
2018-04-22T01:53:15.749Z,97.65
2018-04-22T01:54:15.766Z,97.55
2018-04-22T01:55:15.775Z,97.46
2018-04-22T01:56:15.798Z,98.03
2018-04-22T01:57:15.825Z,97.93
2018-04-22T01:58:15.842Z,97.84
2018-04-22T01:59:15.861Z,98.36
2018-04-22T02:00:15.868Z,98.46
2018-04-22T02:01:15.890Z,98.60
2018-04-22T02:02:15.911Z,97.79
2018-04-22T02:03:15.922Z,98.27
2018-04-22T02:04:15.942Z,98.55
2018-04-22T02:05:15.963Z,97.88
2018-04-22T02:06:15.974Z,98.08
2018-04-22T02:07:15.993Z,98.27
2018-04-22T02:08:16.014Z,98.65
2018-04-22T02:09:16.036Z,98.93
2018-04-22T02:10:16.048Z,98.74
2018-04-22T02:11:16.066Z,99.41
2018-04-22T02:12:16.088Z,99.41
2018-04-22T02:13:16.109Z,99.60
2018-04-22T02:14:16.118Z,99.50
2018-04-22T02:15:16.140Z,99.99
2018-04-22T02:16:16.160Z,99.98
2018-04-22T02:17:16.181Z,99.50
2018-04-22T02:18:16.191Z,99.99
2018-04-22T02:19:16.221Z,99.60
2018-04-22T02:20:16.233Z,99.50
2018-04-22T02:21:16.260Z,99.12
2018-04-22T02:22:16.263Z,99.88
2018-04-22T02:23:16.284Z,99.99
2018-04-22T02:24:16.306Z,99.99
2018-04-22T02:25:16.315Z,99.99
2018-04-22T02:26:16.336Z,99.99
2018-04-22T02:27:16.415Z,99.99
2018-04-22T02:28:16.380Z,99.99
2018-04-22T02:29:16.388Z,99.99
2018-04-22T02:30:16.408Z,99.99
2018-04-22T02:31:16.430Z,99.99
2018-04-22T02:32:16.451Z,99.99
2018-04-22T02:33:16.462Z,99.99
2018-04-22T02:34:16.481Z,99.99
2018-04-22T02:35:16.502Z,99.99
2018-04-22T02:36:16.517Z,99.99
2018-04-22T02:37:16.532Z,99.99
2018-04-22T02:38:16.567Z,99.99
2018-04-22T02:39:16.575Z,99.99
2018-04-22T02:40:16.584Z,99.99
2018-04-22T02:41:16.606Z,99.99
2018-04-22T02:42:16.628Z,99.99
2018-04-22T02:43:16.637Z,99.99
2018-04-22T02:44:16.656Z,99.99
2018-04-22T02:45:16.678Z,99.99
2018-04-22T02:46:16.699Z,99.99
2018-04-22T02:47:16.721Z,99.99
2018-04-22T02:48:16.730Z,99.99
2018-04-22T02:49:16.750Z,99.99
2018-04-22T02:50:16.759Z,99.99
2018-04-22T02:51:16.782Z,99.99
2018-04-22T02:52:16.817Z,99.99
2018-04-22T02:53:16.827Z,99.99
2018-04-22T02:54:16.832Z,99.99
2018-04-22T02:55:16.854Z,99.99
2018-04-22T02:56:16.875Z,99.99
2018-04-22T02:57:16.883Z,99.99
2018-04-22T02:58:16.905Z,99.99
2018-04-22T02:59:16.926Z,99.99
2018-04-22T03:00:16.949Z,99.99
2018-04-22T03:01:16.956Z,99.99
2018-04-22T03:02:16.977Z,99.99
2018-04-22T03:03:16.999Z,99.99
2018-04-22T03:04:17.008Z,99.99
2018-04-22T03:05:17.031Z,99.99
2018-04-22T03:06:17.053Z,99.99
2018-04-22T03:07:17.059Z,99.99
2018-04-22T03:08:17.083Z,99.99
2018-04-22T03:09:17.102Z,99.99
2018-04-22T03:10:17.112Z,99.99
2018-04-22T03:11:17.132Z,99.99
2018-04-22T03:12:17.152Z,99.99
2018-04-22T03:13:17.174Z,99.99
2018-04-22T03:14:17.185Z,99.99
2018-04-22T03:15:17.207Z,99.99
2018-04-22T03:16:17.232Z,99.99
2018-04-22T03:17:17.234Z,99.99
2018-04-22T03:18:17.256Z,99.99
2018-04-22T03:19:17.277Z,99.99
2018-04-22T03:20:17.287Z,99.99
2018-04-22T03:21:17.308Z,99.99
2018-04-22T03:22:17.334Z,99.99
2018-04-22T03:23:17.351Z,99.99
2018-04-22T03:24:17.359Z,99.99
2018-04-22T03:25:17.381Z,99.99
2018-04-22T03:26:17.406Z,99.99
2018-04-22T03:27:17.414Z,99.99
2018-04-22T03:28:17.433Z,99.99
2018-04-22T03:29:17.454Z,99.99
2018-04-22T03:30:17.475Z,99.99
2018-04-22T03:31:17.483Z,99.99
2018-04-22T03:32:17.506Z,99.99
2018-04-22T03:33:17.517Z,99.99
2018-04-22T03:34:17.536Z,99.99
2018-04-22T03:35:17.560Z,99.99
2018-04-22T03:36:17.578Z,99.99
2018-04-22T03:37:17.587Z,99.99
2018-04-22T03:38:17.607Z,99.99
2018-04-22T03:39:17.637Z,99.99
2018-04-22T03:40:17.640Z,99.99
2018-04-22T03:41:17.661Z,99.99
2018-04-22T03:42:17.683Z,99.99
2018-04-22T03:43:17.690Z,99.99
2018-04-22T03:44:17.713Z,99.99
2018-04-22T03:45:17.734Z,99.99
2018-04-22T03:46:17.744Z,99.99
2018-04-22T03:47:17.764Z,99.99
2018-04-22T03:48:17.790Z,99.99
2018-04-22T03:49:17.808Z,99.99
2018-04-22T03:50:17.816Z,99.99
2018-04-22T03:51:17.838Z,99.99
2018-04-22T03:52:17.847Z,99.99
2018-04-22T03:53:17.869Z,99.99
2018-04-22T03:54:17.894Z,99.99
2018-04-22T03:55:17.912Z,99.99
2018-04-22T03:56:17.920Z,99.99
2018-04-22T03:57:17.941Z,99.99
2018-04-22T03:58:17.963Z,99.99
2018-04-22T03:59:17.972Z,99.99
2018-04-22T04:00:17.994Z,99.99
2018-04-22T04:01:18.015Z,99.99
2018-04-22T04:02:18.026Z,99.99
2018-04-22T04:03:18.057Z,99.99
2018-04-22T04:04:18.065Z,99.99
2018-04-22T04:05:18.076Z,99.99
2018-04-22T04:06:18.097Z,99.99
2018-04-22T04:07:18.118Z,99.99
2018-04-22T04:08:18.127Z,99.99
2018-04-22T04:09:18.149Z,99.99
2018-04-22T04:10:18.170Z,99.99
2018-04-22T04:11:18.181Z,99.99
2018-04-22T04:12:18.200Z,99.99
2018-04-22T04:13:18.221Z,99.99
2018-04-22T04:14:18.230Z,99.99
2018-04-22T04:15:18.251Z,99.99
2018-04-22T04:16:18.286Z,99.99
2018-04-22T04:17:18.282Z,99.99
2018-04-22T04:18:18.303Z,99.99
2018-04-22T04:19:18.338Z,99.99
2018-04-22T04:20:18.346Z,99.99
2018-04-22T04:21:18.354Z,99.99
2018-04-22T04:22:18.381Z,99.99
2018-04-22T04:23:18.397Z,99.99
2018-04-22T04:24:18.407Z,99.99
2018-04-22T04:25:18.428Z,99.99
2018-04-22T04:26:18.449Z,99.99
2018-04-22T04:27:18.458Z,99.99
2018-04-22T04:28:18.479Z,99.99
2018-04-22T04:29:18.500Z,99.99
2018-04-22T04:30:18.511Z,99.99
2018-04-22T04:31:18.532Z,99.99
2018-04-22T04:32:18.552Z,99.99
2018-04-22T04:33:18.573Z,99.99
2018-04-22T04:34:18.581Z,99.99
2018-04-22T04:35:18.603Z,99.99
2018-04-22T04:36:18.613Z,99.99
2018-04-22T04:37:18.638Z,99.99
2018-04-22T04:38:18.657Z,99.99
2018-04-22T04:39:18.678Z,99.99
2018-04-22T04:40:18.685Z,99.99
2018-04-22T04:41:18.706Z,99.99
2018-04-22T04:42:18.728Z,99.99
2018-04-22T04:43:18.738Z,99.99
2018-04-22T04:44:18.759Z,99.99
2018-04-22T04:45:18.780Z,99.99
2018-04-22T04:46:18.793Z,99.99
2018-04-22T04:47:18.811Z,99.99
2018-04-22T04:48:18.831Z,99.99
2018-04-22T04:49:18.844Z,99.99
2018-04-22T04:50:18.862Z,99.99
2018-04-22T04:51:18.887Z,99.99
2018-04-22T04:52:18.904Z,99.99
2018-04-22T04:53:18.914Z,99.99
2018-04-22T04:54:18.989Z,99.99
2018-04-22T04:55:18.956Z,99.99
2018-04-22T04:56:18.965Z,99.99
2018-04-22T04:57:18.987Z,99.99
2018-04-22T04:58:19.012Z,99.99
2018-04-22T04:59:19.030Z,99.99
2018-04-22T05:00:19.093Z,99.99
2018-04-22T05:01:19.059Z,99.99
2018-04-22T05:02:19.080Z,99.99
2018-04-22T05:03:19.103Z,99.99
2018-04-22T05:04:19.111Z,99.99
2018-04-22T05:05:19.134Z,99.99
2018-04-22T05:06:19.155Z,99.99
2018-04-22T05:07:19.164Z,99.99
2018-04-22T05:08:19.189Z,99.99
2018-04-22T05:09:19.205Z,99.99
2018-04-22T05:10:19.226Z,99.99
2018-04-22T05:11:19.240Z,99.99
2018-04-22T05:12:19.257Z,99.99
2018-04-22T05:13:19.279Z,99.99
2018-04-22T05:14:19.299Z,99.99
2018-04-22T05:15:19.312Z,99.99
2018-04-22T05:16:19.330Z,99.99
2018-04-22T05:17:19.350Z,99.99
2018-04-22T05:18:19.376Z,99.99
2018-04-22T05:19:19.398Z,99.99
2018-04-22T05:20:19.403Z,99.99
2018-04-22T05:21:19.426Z,99.99
2018-04-22T05:22:19.446Z,99.99
2018-04-22T05:23:19.455Z,99.99
2018-04-22T05:24:19.481Z,99.99
2018-04-22T05:25:19.497Z,99.99
2018-04-22T05:26:19.532Z,99.99
2018-04-22T05:27:19.529Z,99.99
2018-04-22T05:28:19.550Z,99.99
2018-04-22T05:29:19.574Z,99.99
2018-04-22T05:30:19.592Z,99.99
2018-04-22T05:31:19.601Z,99.99
2018-04-22T05:32:19.625Z,99.99
2018-04-22T05:33:19.643Z,99.99
2018-04-22T05:34:19.665Z,99.99
2018-04-22T05:35:19.685Z,99.99
2018-04-22T05:36:19.696Z,99.99
2018-04-22T05:37:19.717Z,99.99
2018-04-22T05:38:19.740Z,99.99
2018-04-22T05:39:19.751Z,99.99
2018-04-22T05:40:19.774Z,99.99
2018-04-22T05:41:19.789Z,99.99
2018-04-22T05:42:19.810Z,99.99
2018-04-22T05:43:19.832Z,99.99
2018-04-22T05:44:19.842Z,99.99
2018-04-22T05:45:19.863Z,99.99
2018-04-22T05:46:19.883Z,99.99
2018-04-22T05:47:19.906Z,99.99
2018-04-22T05:48:19.915Z,99.99
2018-04-22T05:49:19.935Z,99.99
2018-04-22T05:50:19.963Z,99.99
2018-04-22T05:51:19.978Z,99.99
2018-04-22T05:52:20.001Z,99.99
2018-04-22T05:53:20.009Z,99.99
2018-04-22T05:54:20.030Z,99.99
2018-04-22T05:55:20.052Z,99.99
2018-04-22T05:56:20.074Z,99.99
2018-04-22T05:57:20.097Z,99.99
2018-04-22T05:58:20.104Z,99.99
2018-04-22T05:59:20.125Z,99.99
2018-04-22T06:00:20.148Z,99.99
2018-04-22T06:01:20.173Z,99.99
2018-04-22T06:02:20.203Z,99.99
2018-04-22T06:03:20.210Z,99.99
2018-04-22T06:04:20.220Z,99.99
2018-04-22T06:05:20.241Z,99.99
2018-04-22T06:06:20.263Z,99.99
2018-04-22T06:07:20.283Z,99.99
2018-04-22T06:08:20.305Z,99.32
2018-04-22T06:09:20.315Z,99.13
2018-04-22T06:10:20.335Z,98.94
2018-04-22T06:11:20.356Z,98.56
2018-04-22T06:12:20.377Z,98.36
2018-04-22T06:13:20.398Z,97.70
2018-04-22T06:14:20.420Z,97.61
2018-04-22T06:15:20.455Z,97.51
2018-04-22T06:16:20.463Z,97.17
2018-04-22T06:17:20.489Z,97.17
2018-04-22T06:18:20.495Z,96.89
2018-04-22T06:19:20.514Z,96.89
2018-04-22T06:20:20.537Z,96.89
2018-04-22T06:21:20.558Z,96.80
2018-04-22T06:22:20.580Z,96.94
2018-04-22T06:23:20.600Z,97.03
2018-04-22T06:24:20.622Z,96.75
2018-04-22T06:25:20.644Z,96.46
2018-04-22T06:26:20.664Z,95.56
2018-04-22T06:27:20.674Z,94.60
2018-04-22T06:28:20.713Z,93.70
2018-04-22T06:29:20.716Z,93.79
2018-04-22T06:30:20.737Z,92.88
2018-04-22T06:31:20.759Z,92.11
2018-04-22T06:32:20.783Z,91.74
2018-04-22T06:33:20.801Z,91.88
2018-04-22T06:34:20.824Z,91.35
2018-04-22T06:35:20.857Z,90.48
2018-04-22T06:36:20.885Z,89.34
2018-04-22T06:37:20.902Z,88.71
2018-04-22T06:38:20.922Z,88.13
2018-04-22T06:39:20.943Z,87.41
2018-04-22T06:40:20.996Z,87.13
2018-04-22T06:41:20.985Z,86.08
2018-04-22T06:42:21.009Z,85.54
2018-04-22T06:43:21.028Z,84.97
2018-04-22T06:44:21.054Z,84.72
2018-04-22T06:45:21.083Z,84.25
2018-04-22T06:46:21.104Z,83.61
2018-04-22T06:47:21.126Z,83.52
2018-04-22T06:48:21.147Z,83.08
2018-04-22T06:49:21.169Z,81.84
2018-04-22T06:50:21.203Z,81.20
2018-04-22T06:51:21.225Z,81.10
2018-04-22T06:52:21.245Z,80.43
2018-04-22T06:53:21.292Z,79.52
2018-04-22T06:54:21.300Z,79.99
2018-04-22T06:55:21.374Z,78.69
2018-04-22T06:56:21.343Z,77.63
2018-04-22T06:57:21.377Z,77.44
2018-04-22T06:58:21.402Z,77.00
2018-04-22T06:59:21.420Z,76.71
2018-04-22T07:00:21.468Z,77.09
2018-04-22T07:01:21.474Z,76.26
2018-04-22T07:02:21.496Z,74.67
2018-04-22T07:03:21.531Z,74.19
2018-04-22T07:04:21.553Z,73.22
2018-04-22T07:05:21.623Z,71.59
2018-04-22T07:06:21.607Z,70.95
2018-04-22T07:07:21.629Z,70.95
2018-04-22T07:08:21.666Z,71.53
2018-04-22T07:09:21.684Z,72.14
2018-04-22T07:10:21.706Z,71.66
2018-04-22T07:11:21.740Z,69.45
2018-04-22T07:12:21.761Z,69.35
2018-04-22T07:13:21.795Z,68.42
2018-04-22T07:14:21.816Z,68.13
2018-04-22T07:15:21.849Z,67.20
2018-04-22T07:16:21.870Z,67.30
2018-04-22T07:17:21.906Z,67.00
2018-04-22T07:18:21.929Z,66.43
2018-04-22T07:19:21.960Z,65.95
2018-04-22T07:20:21.982Z,65.59
2018-04-22T07:21:22.016Z,65.20
2018-04-22T07:22:22.038Z,64.63
2018-04-22T07:23:22.070Z,64.15
2018-04-22T07:24:22.092Z,63.37
2018-04-22T07:25:22.128Z,63.47
2018-04-22T07:26:22.159Z,63.60
2018-04-22T07:27:22.180Z,62.63
2018-04-22T07:28:22.215Z,62.54
2018-04-22T07:29:22.238Z,62.34
2018-04-22T07:30:22.283Z,62.73
2018-04-22T07:31:22.292Z,62.63
2018-04-22T07:32:22.326Z,63.21
2018-04-22T07:33:22.362Z,62.73
2018-04-22T07:34:22.381Z,62.34
2018-04-22T07:35:22.420Z,61.67
2018-04-22T07:36:22.436Z,61.80
2018-04-22T07:37:22.470Z,61.70
2018-04-22T07:38:22.504Z,60.89
2018-04-22T07:39:22.525Z,61.28
2018-04-22T07:40:22.559Z,62.08
2018-04-22T07:41:22.593Z,61.99
2018-04-22T07:42:22.632Z,61.51
2018-04-22T07:43:22.648Z,61.51
2018-04-22T07:44:22.682Z,60.73
2018-04-22T07:45:22.703Z,61.02
2018-04-22T07:46:22.739Z,60.93
2018-04-22T07:47:22.771Z,61.02
2018-04-22T07:48:22.793Z,61.22
2018-04-22T07:49:22.826Z,61.80
2018-04-22T07:50:22.861Z,61.60
2018-04-22T07:51:22.895Z,61.22
2018-04-22T07:52:22.915Z,61.02
2018-04-22T07:53:22.991Z,61.31
2018-04-22T07:54:22.982Z,60.93
2018-04-22T07:55:23.005Z,60.16
2018-04-22T07:56:23.039Z,60.16
2018-04-22T07:57:23.072Z,60.64
2018-04-22T07:58:23.107Z,60.54
2018-04-22T07:59:23.128Z,61.31
2018-04-22T08:00:23.174Z,61.89
2018-04-22T08:01:23.200Z,62.02
2018-04-22T08:02:23.232Z,61.92
2018-04-22T08:03:23.257Z,61.51
2018-04-22T08:04:23.284Z,61.63
2018-04-22T08:05:23.319Z,60.73
2018-04-22T08:06:23.355Z,60.25
2018-04-22T08:07:23.387Z,60.44
2018-04-22T08:08:23.407Z,60.80
2018-04-22T08:09:23.442Z,61.38
2018-04-22T08:10:23.475Z,61.96
2018-04-22T08:11:23.496Z,62.51
2018-04-22T08:12:23.530Z,62.70
2018-04-22T08:13:23.563Z,62.70
2018-04-22T08:14:23.599Z,63.18
2018-04-22T08:15:23.619Z,63.54
2018-04-22T08:16:23.643Z,63.92
2018-04-22T08:17:23.678Z,63.12
2018-04-22T08:18:23.698Z,63.31
2018-04-22T08:19:23.731Z,63.50
2018-04-22T08:20:23.753Z,64.08
2018-04-22T08:21:23.785Z,64.08
2018-04-22T08:22:23.808Z,64.92
2018-04-22T08:23:23.842Z,65.69
2018-04-22T08:24:23.862Z,65.88
2018-04-22T08:25:23.896Z,66.07
2018-04-22T08:26:23.917Z,65.69
2018-04-22T08:27:23.952Z,66.17
2018-04-22T08:28:23.999Z,66.24
2018-04-22T08:29:24.006Z,67.19
2018-04-22T08:30:24.028Z,67.49
2018-04-22T08:31:24.050Z,67.29
2018-04-22T08:32:24.084Z,67.19
2018-04-22T08:33:24.106Z,67.07
2018-04-22T08:34:24.143Z,67.16
2018-04-22T08:35:24.159Z,67.45
2018-04-22T08:36:24.181Z,66.88
2018-04-22T08:37:24.216Z,68.13
2018-04-22T08:38:24.237Z,68.03
2018-04-22T08:39:24.268Z,68.41
2018-04-22T08:40:24.292Z,68.32
2018-04-22T08:41:24.313Z,68.80
2018-04-22T08:42:24.336Z,68.90
2018-04-22T08:43:24.369Z,69.09
2018-04-22T08:44:24.389Z,69.09
2018-04-22T08:45:24.412Z,69.28
2018-04-22T08:46:24.445Z,69.18
2018-04-22T08:47:24.466Z,69.34
2018-04-22T08:48:24.490Z,69.24
2018-04-22T08:49:24.522Z,69.53
2018-04-22T08:50:24.543Z,69.53
2018-04-22T08:51:24.576Z,69.57
2018-04-22T08:52:24.598Z,69.44
2018-04-22T08:53:24.620Z,69.76
2018-04-22T08:54:24.643Z,70.59
2018-04-22T08:55:24.676Z,70.40
2018-04-22T08:56:24.697Z,70.21
2018-04-22T08:57:24.718Z,70.21
2018-04-22T08:58:24.764Z,69.92
2018-04-22T08:59:24.772Z,70.01
2018-04-22T09:00:24.796Z,70.21
2018-04-22T09:01:24.829Z,71.17
2018-04-22T09:02:24.852Z,70.92
2018-04-22T09:03:24.871Z,70.62
2018-04-22T09:04:24.893Z,70.30
2018-04-22T09:05:24.926Z,70.50
2018-04-22T09:06:24.957Z,69.92
2018-04-22T09:07:24.969Z,70.21
2018-04-22T09:08:25.004Z,70.62
2018-04-22T09:09:25.042Z,72.07
2018-04-22T09:10:25.047Z,72.17
2018-04-22T09:11:25.079Z,73.03
2018-04-22T09:12:25.117Z,73.42
2018-04-22T09:13:25.122Z,72.74
2018-04-22T09:14:25.157Z,72.84
2018-04-22T09:15:25.177Z,72.65
2018-04-22T09:16:25.224Z,72.94
2018-04-22T09:17:25.221Z,71.40
2018-04-22T09:18:25.254Z,70.82
2018-04-22T09:19:25.275Z,71.69
2018-04-22T09:20:25.297Z,71.59
2018-04-22T09:21:25.339Z,70.24
2018-04-22T09:22:25.352Z,70.15
2018-04-22T09:23:25.382Z,69.57
2018-04-22T09:24:25.419Z,69.89
2018-04-22T09:25:25.442Z,69.28
2018-04-22T09:26:25.450Z,70.05
2018-04-22T09:27:25.484Z,70.24
2018-04-22T09:28:25.511Z,69.95
2018-04-22T09:29:25.548Z,69.38
2018-04-22T09:30:25.561Z,69.57
2018-04-22T09:31:25.582Z,70.09
2018-04-22T09:32:25.606Z,71.20
2018-04-22T09:33:25.637Z,70.86
2018-04-22T09:34:25.658Z,70.56
2018-04-22T09:35:25.680Z,70.18
2018-04-22T09:36:25.701Z,70.18
2018-04-22T09:37:25.735Z,69.31
2018-04-22T09:38:25.808Z,68.35
2018-04-22T09:39:25.777Z,67.97
2018-04-22T09:40:25.818Z,67.87
2018-04-22T09:41:25.834Z,67.19
2018-04-22T09:42:25.854Z,67.10
2018-04-22T09:43:25.887Z,66.94
2018-04-22T09:44:25.909Z,68.29
2018-04-22T09:45:25.930Z,68.10
2018-04-22T09:46:25.967Z,67.71
2018-04-22T09:47:25.986Z,67.90
2018-04-22T09:48:26.008Z,67.71
2018-04-22T09:49:26.041Z,67.90
2018-04-22T09:50:26.062Z,68.38
2018-04-22T09:51:26.084Z,68.29
2018-04-22T09:52:26.118Z,67.13
2018-04-22T09:53:26.172Z,65.98
2018-04-22T09:54:26.160Z,65.72
2018-04-22T09:55:26.194Z,65.81
2018-04-22T09:56:26.215Z,65.43
2018-04-22T09:57:26.238Z,65.05
2018-04-22T09:58:26.272Z,64.08
2018-04-22T09:59:26.293Z,64.47
2018-04-22T10:00:26.328Z,64.47
2018-04-22T10:01:26.350Z,65.14
2018-04-22T10:02:26.369Z,65.91
2018-04-22T10:03:26.405Z,66.62
2018-04-22T10:04:26.424Z,66.82
2018-04-22T10:05:26.447Z,66.82
2018-04-22T10:06:26.480Z,65.56
2018-04-22T10:07:26.501Z,65.08
2018-04-22T10:08:26.535Z,65.85
2018-04-22T10:09:26.557Z,65.95
2018-04-22T10:10:26.590Z,65.17
2018-04-22T10:11:26.611Z,64.50
2018-04-22T10:12:26.646Z,64.40
2018-04-22T10:13:26.667Z,64.72
2018-04-22T10:14:26.700Z,65.78
2018-04-22T10:15:26.721Z,66.08
2018-04-22T10:16:26.757Z,64.72
2018-04-22T10:17:26.777Z,64.08
2018-04-22T10:18:26.810Z,63.70
2018-04-22T10:19:26.848Z,63.79
2018-04-22T10:20:26.867Z,63.40
2018-04-22T10:21:26.901Z,63.05
2018-04-22T10:22:26.933Z,63.53
2018-04-22T10:23:26.957Z,63.37
2018-04-22T10:24:26.989Z,62.60
2018-04-22T10:25:27.033Z,62.44
2018-04-22T10:26:27.057Z,61.47
2018-04-22T10:27:27.091Z,61.40
2018-04-22T10:28:27.116Z,61.40
2018-04-22T10:29:27.147Z,60.27
2018-04-22T10:30:27.182Z,59.31
2018-04-22T10:31:27.217Z,58.63
2018-04-22T10:32:27.249Z,60.11
2018-04-22T10:33:27.282Z,59.05
2018-04-22T10:34:27.316Z,57.81
2018-04-22T10:35:27.350Z,57.23
2018-04-22T10:36:27.383Z,57.53
2018-04-22T10:37:27.419Z,56.85
2018-04-22T10:38:27.460Z,56.68
2018-04-22T10:39:27.498Z,55.26
2018-04-22T10:40:27.533Z,54.77
2018-04-22T10:41:27.572Z,54.80
2018-04-22T10:42:27.599Z,53.95
2018-04-22T10:43:27.634Z,53.49
2018-04-22T10:44:27.680Z,53.22
2018-04-22T10:45:27.717Z,52.55
2018-04-22T10:46:27.748Z,52.67
2018-04-22T10:47:27.781Z,52.37
2018-04-22T10:48:27.828Z,51.62
2018-04-22T10:49:27.867Z,51.75
2018-04-22T10:50:27.895Z,51.26
2018-04-22T10:51:27.941Z,50.51
2018-04-22T10:52:27.980Z,50.24
2018-04-22T10:53:28.025Z,49.10
2018-04-22T10:54:28.069Z,47.63
2018-04-22T10:55:28.090Z,47.46
2018-04-22T10:56:28.137Z,46.41
2018-04-22T10:57:28.175Z,46.04
2018-04-22T10:58:28.230Z,46.04
2018-04-22T10:59:28.252Z,45.78
2018-04-22T11:00:28.296Z,46.36
2018-04-22T11:01:28.331Z,46.48
2018-04-22T11:02:28.396Z,46.50
2018-04-22T11:03:28.423Z,46.21
2018-04-22T11:04:28.458Z,45.75
2018-04-22T11:05:28.504Z,44.77
2018-04-22T11:06:28.537Z,44.98
2018-04-22T11:07:28.583Z,44.52
2018-04-22T11:08:28.620Z,44.03
2018-04-22T11:09:28.665Z,43.84
2018-04-22T11:10:28.711Z,43.63
2018-04-22T11:11:28.757Z,42.78
2018-04-22T11:12:28.790Z,43.56
2018-04-22T11:13:28.825Z,42.09
2018-04-22T11:14:28.871Z,41.62
2018-04-22T11:15:28.921Z,42.41
2018-04-22T11:16:28.951Z,42.41
2018-04-22T11:17:29.011Z,42.21
2018-04-22T11:18:29.044Z,41.64
2018-04-22T11:19:29.080Z,41.45
2018-04-22T11:20:29.124Z,40.68
2018-04-22T11:21:29.160Z,40.58
2018-04-22T11:22:29.205Z,39.62
2018-04-22T11:23:29.250Z,39.82
2018-04-22T11:24:29.285Z,39.54
2018-04-22T11:25:29.336Z,39.64
2018-04-22T11:26:29.378Z,40.13
2018-04-22T11:27:29.425Z,40.43
2018-04-22T11:28:29.458Z,40.45
2018-04-22T11:29:29.503Z,39.86
2018-04-22T11:30:29.551Z,39.09
2018-04-22T11:31:29.584Z,39.00
2018-04-22T11:32:29.631Z,38.31
2018-04-22T11:33:29.677Z,38.31
2018-04-22T11:34:29.711Z,38.13
2018-04-22T11:35:29.757Z,37.54
2018-04-22T11:36:29.804Z,37.52
2018-04-22T11:37:29.849Z,37.32
2018-04-22T11:38:29.885Z,37.52
2018-04-22T11:39:29.931Z,37.72
2018-04-22T11:40:29.982Z,38.11
2018-04-22T11:41:30.014Z,37.82
2018-04-22T11:42:30.057Z,38.11
2018-04-22T11:43:30.103Z,38.40
2018-04-22T11:44:30.142Z,38.11
2018-04-22T11:45:30.184Z,38.31
2018-04-22T11:46:30.230Z,38.92
2018-04-22T11:47:30.276Z,38.13
2018-04-22T11:48:30.309Z,37.65
2018-04-22T11:49:30.356Z,38.54
2018-04-22T11:50:30.416Z,37.55
2018-04-22T11:51:30.437Z,37.65
2018-04-22T11:52:30.538Z,37.74
2018-04-22T11:53:30.587Z,37.82
2018-04-22T11:54:30.564Z,38.40
2018-04-22T11:55:30.611Z,38.52
2018-04-22T11:56:30.656Z,38.92
2018-04-22T11:57:30.702Z,38.93
2018-04-22T11:58:30.737Z,37.55
2018-04-22T11:59:30.782Z,37.84
2018-04-22T12:00:30.829Z,37.85
2018-04-22T12:01:30.863Z,37.46
2018-04-22T12:02:30.958Z,36.36
2018-04-22T12:03:30.957Z,36.65
2018-04-22T12:04:30.989Z,37.24
2018-04-22T12:05:31.037Z,36.95
2018-04-22T12:06:31.135Z,36.95
2018-04-22T12:07:31.116Z,37.05
2018-04-22T12:08:31.176Z,37.26
2018-04-22T12:09:31.209Z,37.07
2018-04-22T12:10:31.242Z,36.47
2018-04-22T12:11:31.290Z,36.46
2018-04-22T12:12:31.336Z,36.55
2018-04-22T12:13:31.370Z,36.36
2018-04-22T12:14:31.416Z,36.36
2018-04-22T12:15:31.463Z,36.95
2018-04-22T12:16:31.498Z,36.95
2018-04-22T12:17:31.543Z,37.44
2018-04-22T12:18:31.591Z,37.54
2018-04-22T12:19:31.623Z,38.72
2018-04-22T12:20:31.668Z,38.92
2018-04-22T12:21:31.716Z,38.44
2018-04-22T12:22:31.761Z,38.44
2018-04-22T12:23:31.806Z,38.05
2018-04-22T12:24:31.842Z,37.26
2018-04-22T12:25:31.877Z,36.97
2018-04-22T12:26:31.923Z,36.57
2018-04-22T12:27:31.969Z,36.57
2018-04-22T12:28:32.003Z,37.07
2018-04-22T12:29:32.051Z,37.34
2018-04-22T12:30:32.096Z,38.23
2018-04-22T12:31:32.129Z,38.21
2018-04-22T12:32:32.179Z,38.21
2018-04-22T12:33:32.211Z,38.50
2018-04-22T12:34:32.257Z,38.23
2018-04-22T12:35:32.303Z,37.74
2018-04-22T12:36:32.349Z,37.62
2018-04-22T12:37:32.383Z,37.72
2018-04-22T12:38:32.429Z,37.82
2018-04-22T12:39:32.466Z,38.60
2018-04-22T12:40:32.511Z,38.50
2018-04-22T12:41:32.544Z,38.50
2018-04-22T12:42:32.590Z,38.40
2018-04-22T12:43:32.636Z,37.92
2018-04-22T12:44:32.673Z,38.68
2018-04-22T12:45:32.720Z,39.07
2018-04-22T12:46:32.750Z,38.78
2018-04-22T12:47:32.797Z,39.27
2018-04-22T12:48:32.835Z,39.47
2018-04-22T12:49:32.877Z,39.25
2018-04-22T12:50:32.913Z,39.45
2018-04-22T12:51:32.957Z,39.74
2018-04-22T12:52:32.992Z,39.74